Accueil
METAR-TAF:

METAR-TAF

Aéroports :

Touho, Nouvelle-Calédonie

Aérodrome de Touho

latitude: 20-47-25S, longitude: 165-15-34E, altitude: 3 m

METAR: absent

Heure: 17:30 (06:30 UTC)

Prévision

Le bulletin a été fait il y a 13 heures et 30 minutes, à 17:00 UTC
Prévision valable du 11 à 18 UTC au 12 à 18 UTC
Vent 8 kt de est/sud-est
Visibilité 10 km ou plus
Nuages épars à une hauteur de 4000 ft
Temporairement
du 11 à 23 UTC au 12 à 05 UTC
Visibilité: 4000 m
Nuages fragmentés à une hauteur de 1200 ft
Nuages épars à une hauteur de 2000 ft, Cumulus congestus.
averses de pluie

TAF: NWWU 111700Z 1118/1218 12008KT 9999 SCT040 TEMPO 1123/1205 4000 SHRA BKN012 SCT020TCU

Observations et prévisions météorologiques de plus de 4000 aéroports (messages METAR et TAF).

Les stations disponibles sont représentées par des disques jaunes et rouges sur la carte.

Passer la souris dessus pour voir le nom de la station.

Cliquer dessus pour voir les observations et prévisions météorologiques.

Pour changer de carte: cliquez sur les boutons verts avec une croix noire pour zoomer, sur le bouton vert avec un tiret pour effectuer un zoom arrière, ou sur les flèches vertes pour les cartes adjacentes.


METAR-TAF: